createdAt,value
2018-08-12T00:02:27.130Z,4.73
2018-08-12T00:04:57.488Z,2.53
2018-08-12T00:07:26.809Z,2.37
2018-08-12T00:09:55.935Z,3.23
2018-08-12T00:12:23.996Z,4.50
2018-08-12T00:14:52.092Z,2.60
2018-08-12T00:17:20.281Z,3.47
2018-08-12T00:19:48.526Z,1.80
2018-08-12T00:22:16.744Z,4.00
2018-08-12T00:24:44.918Z,3.57
2018-08-12T00:27:12.997Z,2.13
2018-08-12T00:29:41.153Z,2.53
2018-08-12T00:32:09.408Z,3.27
2018-08-12T00:34:38.063Z,2.73
2018-08-12T00:37:07.422Z,2.20
2018-08-12T00:39:35.524Z,2.37
2018-08-12T00:42:04.402Z,1.77
2018-08-12T00:44:32.500Z,2.93
2018-08-12T00:47:00.679Z,1.90
2018-08-12T00:49:28.995Z,2.90
2018-08-12T00:51:57.191Z,2.10
2018-08-12T00:54:25.648Z,3.03
2018-08-12T00:56:53.788Z,2.93
2018-08-12T00:59:21.901Z,3.93
2018-08-12T01:01:50.367Z,3.57
2018-08-12T01:04:18.644Z,1.87
2018-08-12T01:06:47.239Z,2.03
2018-08-12T01:09:15.971Z,3.80
2018-08-12T01:11:44.035Z,2.67
2018-08-12T01:14:12.649Z,3.63
2018-08-12T01:16:40.931Z,2.03
2018-08-12T01:19:09.112Z,3.97
2018-08-12T01:21:37.544Z,1.90
2018-08-12T01:24:05.679Z,3.30
2018-08-12T01:26:33.801Z,3.17
2018-08-12T01:29:02.365Z,2.80
2018-08-12T01:31:30.834Z,2.73
2018-08-12T01:34:00.743Z,2.67
2018-08-12T01:36:29.256Z,2.10
2018-08-12T01:38:57.625Z,2.60
2018-08-12T01:41:25.952Z,2.10
2018-08-12T01:43:54.287Z,3.90
2018-08-12T01:46:23.643Z,1.40
2018-08-12T01:48:53.042Z,3.00
2018-08-12T01:51:21.540Z,2.63
2018-08-12T01:53:50.269Z,1.10
2018-08-12T01:56:18.366Z,2.10
2018-08-12T01:58:46.462Z,1.67
2018-08-12T02:01:14.546Z,2.40
2018-08-12T02:03:43.156Z,2.53
2018-08-12T02:06:11.575Z,1.87
2018-08-12T02:08:39.805Z,2.63
2018-08-12T02:11:08.386Z,3.13
2018-08-12T02:13:37.600Z,1.93
2018-08-12T02:16:05.900Z,2.07
2018-08-12T02:18:36.057Z,1.90
2018-08-12T02:21:04.223Z,1.13
2018-08-12T02:23:32.327Z,1.93
2018-08-12T02:26:01.065Z,3.10
2018-08-12T02:28:29.218Z,3.53
2018-08-12T02:30:57.250Z,2.40
2018-08-12T02:33:25.342Z,3.00
2018-08-12T02:35:53.533Z,4.50
2018-08-12T02:38:21.739Z,3.40
2018-08-12T02:40:51.678Z,3.30
2018-08-12T02:43:19.897Z,4.93
2018-08-12T02:45:48.001Z,2.77
2018-08-12T02:48:16.059Z,2.90
2018-08-12T02:50:44.282Z,2.93
2018-08-12T02:53:13.118Z,3.43
2018-08-12T02:55:46.709Z,4.30
2018-08-12T02:58:14.881Z,3.17
2018-08-12T03:00:43.059Z,3.77
2018-08-12T03:03:11.642Z,3.37
2018-08-12T03:05:40.016Z,3.53
2018-08-12T03:08:08.120Z,2.93
2018-08-12T03:10:36.378Z,2.63
2018-08-12T03:13:06.141Z,4.30
2018-08-12T03:15:34.351Z,4.97
2018-08-12T03:18:02.509Z,1.50
2018-08-12T03:20:31.310Z,5.20
2018-08-12T03:22:59.409Z,2.90
2018-08-12T03:25:27.690Z,2.80
2018-08-12T03:27:56.208Z,3.70
2018-08-12T03:30:26.429Z,4.13
2018-08-12T03:32:54.790Z,4.73
2018-08-12T03:35:23.034Z,3.13
2018-08-12T03:37:52.108Z,2.50
2018-08-12T03:40:20.170Z,2.87
2018-08-12T03:42:48.250Z,4.50
2018-08-12T03:45:17.110Z,3.90
2018-08-12T03:47:45.360Z,2.80
2018-08-12T03:50:13.418Z,2.00
2018-08-12T03:52:41.511Z,4.57
2018-08-12T03:55:09.672Z,5.40
2018-08-12T03:57:37.943Z,5.33
2018-08-12T04:00:11.244Z,4.77
2018-08-12T04:02:39.453Z,4.20
2018-08-12T04:05:07.671Z,2.67
2018-08-12T04:07:35.834Z,2.30
2018-08-12T04:10:03.982Z,2.53
2018-08-12T04:12:32.386Z,2.67
2018-08-12T04:15:01.609Z,4.23
2018-08-12T04:17:30.037Z,2.43
2018-08-12T04:19:58.462Z,2.87
2018-08-12T04:22:26.827Z,4.33
2018-08-12T04:24:55.235Z,4.33
2018-08-12T04:27:23.640Z,2.97
2018-08-12T04:29:52.029Z,2.33
2018-08-12T04:32:20.394Z,5.07
2018-08-12T04:34:48.771Z,5.27
2018-08-12T04:37:17.038Z,1.83
2018-08-12T04:39:45.806Z,3.03
2018-08-12T04:42:13.947Z,2.27
2018-08-12T04:44:42.283Z,3.13
2018-08-12T04:47:10.615Z,2.47
2018-08-12T04:49:38.921Z,2.30
2018-08-12T04:52:07.235Z,2.33
2018-08-12T04:54:35.514Z,4.60
2018-08-12T04:57:04.453Z,3.97
2018-08-12T04:59:32.810Z,4.33
2018-08-12T05:02:01.102Z,3.20
2018-08-12T05:04:29.421Z,5.90
2018-08-12T05:06:57.786Z,3.03
2018-08-12T05:09:26.401Z,3.43
2018-08-12T05:11:54.788Z,3.00
2018-08-12T05:14:23.148Z,2.57
2018-08-12T05:16:51.498Z,2.70
2018-08-12T05:19:19.798Z,2.47
2018-08-12T05:21:48.139Z,2.80
2018-08-12T05:24:16.522Z,2.30
2018-08-12T05:26:44.838Z,2.33
2018-08-12T05:29:13.121Z,3.93
2018-08-12T05:31:41.487Z,3.13
2018-08-12T05:34:09.817Z,3.53
2018-08-12T05:36:38.347Z,4.07
2018-08-12T05:39:09.236Z,2.47
2018-08-12T05:41:37.612Z,2.47
2018-08-12T05:44:06.282Z,2.00
2018-08-12T05:46:34.593Z,2.77
2018-08-12T05:49:02.969Z,2.97
2018-08-12T05:51:31.348Z,2.50
2018-08-12T05:53:59.649Z,4.73
2018-08-12T05:56:27.977Z,2.20
2018-08-12T05:58:56.567Z,4.13
2018-08-12T06:01:24.852Z,3.03
2018-08-12T06:03:53.143Z,4.63
2018-08-12T06:06:21.491Z,3.53
2018-08-12T06:08:49.848Z,4.60
2018-08-12T06:11:18.174Z,3.70
2018-08-12T06:13:46.530Z,5.17
2018-08-12T06:16:14.632Z,2.60
2018-08-12T06:18:42.687Z,4.03
2018-08-12T06:21:11.049Z,3.03
2018-08-12T06:23:39.506Z,2.13
2018-08-12T06:26:07.796Z,2.73
2018-08-12T06:28:36.197Z,3.77
2018-08-12T06:31:04.565Z,3.83
2018-08-12T06:33:32.935Z,1.70
2018-08-12T06:36:01.318Z,3.03
2018-08-12T06:38:30.158Z,3.47
2018-08-12T06:40:59.709Z,3.53
2018-08-12T06:43:27.997Z,3.57
2018-08-12T06:45:56.332Z,8.07
2018-08-12T06:48:24.679Z,3.13
2018-08-12T06:50:53.044Z,3.43
2018-08-12T06:53:21.437Z,3.10
2018-08-12T06:55:49.747Z,3.50
2018-08-12T06:58:18.064Z,2.17
2018-08-12T07:00:46.384Z,4.40
2018-08-12T07:03:14.728Z,3.80
2018-08-12T07:05:43.141Z,3.10
2018-08-12T07:08:11.509Z,4.17
2018-08-12T07:10:39.840Z,4.93
2018-08-12T07:13:08.220Z,1.80
2018-08-12T07:15:36.580Z,3.10
2018-08-12T07:18:04.696Z,5.17
2018-08-12T07:20:32.771Z,3.37
2018-08-12T07:23:00.863Z,5.80
2018-08-12T07:25:28.916Z,2.97
2018-08-12T07:27:57.017Z,2.03
2018-08-12T07:30:25.091Z,4.73
2018-08-12T07:32:53.215Z,4.43
2018-08-12T07:35:21.369Z,3.83
2018-08-12T07:37:49.485Z,4.17
2018-08-12T07:40:19.051Z,3.00
2018-08-12T07:42:48.090Z,4.40
2018-08-12T07:45:16.260Z,2.30
2018-08-12T07:47:44.556Z,5.43
2018-08-12T07:50:14.764Z,4.70
2018-08-12T07:52:45.564Z,3.00
2018-08-12T07:55:14.980Z,3.83
2018-08-12T07:57:43.808Z,3.63
2018-08-12T08:00:14.176Z,3.73
2018-08-12T08:02:42.240Z,4.77
2018-08-12T08:05:10.312Z,4.23
2018-08-12T08:07:38.360Z,4.73
2018-08-12T08:10:09.455Z,4.20
2018-08-12T08:12:38.414Z,4.27
2018-08-12T08:15:07.764Z,3.60
2018-08-12T08:17:35.823Z,5.00
2018-08-12T08:20:05.334Z,5.57
2018-08-12T08:22:33.432Z,5.57
2018-08-12T08:25:01.568Z,5.80
2018-08-12T08:27:29.707Z,4.67
2018-08-12T08:29:57.752Z,3.27
2018-08-12T08:32:25.850Z,3.57
2018-08-12T08:34:53.960Z,3.47
2018-08-12T08:37:22.000Z,4.90
2018-08-12T08:39:50.071Z,4.27
2018-08-12T08:42:18.206Z,2.57
2018-08-12T08:44:46.331Z,3.87
2018-08-12T08:47:14.396Z,3.77
2018-08-12T08:49:42.508Z,1.80
2018-08-12T08:52:11.134Z,3.67
2018-08-12T08:54:39.444Z,3.10
2018-08-12T08:57:09.165Z,5.60
2018-08-12T08:59:37.261Z,6.70
2018-08-12T09:02:05.519Z,3.73
2018-08-12T09:04:34.186Z,4.80
2018-08-12T09:07:02.312Z,6.07
2018-08-12T09:09:30.381Z,2.47
2018-08-12T09:11:58.488Z,4.77
2018-08-12T09:14:26.549Z,3.30
2018-08-12T09:16:54.623Z,3.67
2018-08-12T09:19:23.081Z,2.90
2018-08-12T09:21:51.232Z,5.20
2018-08-12T09:24:19.432Z,4.40
2018-08-12T09:26:47.603Z,3.97
2018-08-12T09:29:15.683Z,3.57
2018-08-12T09:31:43.783Z,5.77
2018-08-12T09:34:11.979Z,4.13
2018-08-12T09:36:40.039Z,4.53
2018-08-12T09:39:09.562Z,4.37
2018-08-12T09:41:38.385Z,3.57
2018-08-12T09:44:06.675Z,3.43
2018-08-12T09:46:34.805Z,5.83
2018-08-12T09:49:02.996Z,2.97
2018-08-12T09:51:31.712Z,2.37
2018-08-12T09:54:00.294Z,4.43
2018-08-12T09:56:28.378Z,5.80
2018-08-12T09:58:56.535Z,2.17
2018-08-12T10:01:24.650Z,4.67
2018-08-12T10:03:52.957Z,2.60
2018-08-12T10:06:21.284Z,3.33
2018-08-12T10:08:49.612Z,3.57
2018-08-12T10:11:17.973Z,5.20
2018-08-12T10:13:46.362Z,3.03
2018-08-12T10:16:14.810Z,2.30
2018-08-12T10:18:43.931Z,2.47
2018-08-12T10:21:12.350Z,5.53
2018-08-12T10:23:40.682Z,2.97
2018-08-12T10:26:09.062Z,4.83
2018-08-12T10:28:37.424Z,3.93
2018-08-12T10:31:05.823Z,3.33
2018-08-12T10:33:34.144Z,18.90
2018-08-12T10:36:02.252Z,4.50
2018-08-12T10:38:30.334Z,3.13
2018-08-12T10:40:58.508Z,3.40
2018-08-12T10:43:26.577Z,4.17
2018-08-12T10:45:54.611Z,2.33
2018-08-12T10:48:22.750Z,3.77
2018-08-12T10:50:50.911Z,4.17
2018-08-12T10:53:19.002Z,3.30
2018-08-12T10:55:47.117Z,3.30
2018-08-12T10:58:15.823Z,2.17
2018-08-12T11:00:43.951Z,3.17
2018-08-12T11:03:12.001Z,4.03
2018-08-12T11:05:40.128Z,5.90
2018-08-12T11:08:15.998Z,3.73
2018-08-12T11:10:44.272Z,3.83
2018-08-12T11:13:12.359Z,5.20
2018-08-12T11:15:40.504Z,2.57
2018-08-12T11:18:08.580Z,4.30
2018-08-12T11:20:37.860Z,2.63
2018-08-12T11:23:06.412Z,3.27
2018-08-12T11:25:35.424Z,3.20
2018-08-12T11:28:03.791Z,6.13
2018-08-12T11:30:32.227Z,4.50
2018-08-12T11:33:00.548Z,7.17
2018-08-12T11:35:28.919Z,5.07
2018-08-12T11:37:57.464Z,3.13
2018-08-12T11:40:25.872Z,3.63
2018-08-12T11:42:54.680Z,1.97
2018-08-12T11:45:23.076Z,2.50
2018-08-12T11:47:51.487Z,4.93
2018-08-12T11:50:19.819Z,2.40
2018-08-12T11:52:48.321Z,3.10
2018-08-12T11:55:17.833Z,2.80
2018-08-12T11:57:45.980Z,3.33
2018-08-12T12:00:16.411Z,2.77
2018-08-12T12:02:45.856Z,2.53
2018-08-12T12:05:14.507Z,3.77
2018-08-12T12:07:43.711Z,2.33
2018-08-12T12:10:13.847Z,2.13
2018-08-12T12:12:43.239Z,3.17
2018-08-12T12:15:12.192Z,3.10
2018-08-12T12:17:40.214Z,6.27
2018-08-12T12:20:09.441Z,2.63
2018-08-12T12:22:38.619Z,2.80
2018-08-12T12:25:07.570Z,2.87
2018-08-12T12:27:35.989Z,3.13
2018-08-12T12:30:05.657Z,3.33
2018-08-12T12:32:33.938Z,3.73
2018-08-12T12:35:02.318Z,3.70
2018-08-12T12:37:30.625Z,3.17
2018-08-12T12:39:58.968Z,3.43
2018-08-12T12:42:27.291Z,2.33
2018-08-12T12:44:55.571Z,4.40
2018-08-12T12:47:24.035Z,2.73
2018-08-12T12:49:52.891Z,3.47
2018-08-12T12:52:21.270Z,2.53
2018-08-12T12:54:49.673Z,2.93
2018-08-12T12:57:18.151Z,2.40
2018-08-12T12:59:47.003Z,2.13
2018-08-12T13:02:16.386Z,2.53
2018-08-12T13:04:44.763Z,4.17
2018-08-12T13:07:13.119Z,2.40
2018-08-12T13:09:41.455Z,4.70
2018-08-12T13:12:09.788Z,2.70
2018-08-12T13:14:38.188Z,3.67
2018-08-12T13:17:06.454Z,4.37
2018-08-12T13:19:34.778Z,3.37
2018-08-12T13:22:03.814Z,2.03
2018-08-12T13:24:32.140Z,2.93
2018-08-12T13:27:00.690Z,3.37
2018-08-12T13:29:29.187Z,3.47
2018-08-12T13:31:57.505Z,2.30
2018-08-12T13:34:26.742Z,4.23
2018-08-12T13:36:55.441Z,3.80
2018-08-12T13:39:23.911Z,4.33
2018-08-12T13:41:52.366Z,2.43
2018-08-12T13:44:23.664Z,3.57
2018-08-12T13:46:55.415Z,2.90
2018-08-12T13:49:26.014Z,3.87
2018-08-12T13:51:55.726Z,3.23
2018-08-12T13:54:28.402Z,2.50
2018-08-12T13:56:57.808Z,3.00
2018-08-12T13:59:27.549Z,2.43
2018-08-12T14:01:55.937Z,4.93
2018-08-12T14:04:24.415Z,3.17
2018-08-12T14:06:53.763Z,5.23
2018-08-12T14:09:22.268Z,3.07
2018-08-12T14:11:51.421Z,4.60
2018-08-12T14:14:19.886Z,2.40
2018-08-12T14:16:48.285Z,2.90
2018-08-12T14:19:17.426Z,2.17
2018-08-12T14:21:45.779Z,3.33
2018-08-12T14:24:14.728Z,2.43
2018-08-12T14:26:43.292Z,4.27
2018-08-12T14:29:11.701Z,2.70
2018-08-12T14:31:40.106Z,4.83
2018-08-12T14:34:08.500Z,2.40
2018-08-12T14:36:37.237Z,4.63
2018-08-12T14:39:07.863Z,2.00
2018-08-12T14:41:36.618Z,4.50
2018-08-12T14:44:05.885Z,3.00
2018-08-12T14:46:34.411Z,3.00
2018-08-12T14:49:03.009Z,2.47
2018-08-12T14:51:34.540Z,6.07
2018-08-12T14:54:03.012Z,2.83
2018-08-12T14:56:32.112Z,2.37
2018-08-12T14:59:00.447Z,3.73
2018-08-12T15:01:28.836Z,4.00
2018-08-12T15:03:57.313Z,4.70
2018-08-12T15:06:25.863Z,4.17
2018-08-12T15:08:54.379Z,3.30
2018-08-12T15:11:23.731Z,2.97
2018-08-12T15:13:52.085Z,3.80
2018-08-12T15:16:20.397Z,1.93
2018-08-12T15:18:48.745Z,2.30
2018-08-12T15:21:17.168Z,4.83
2018-08-12T15:23:46.430Z,5.40
2018-08-12T15:26:16.423Z,4.30
2018-08-12T15:28:45.102Z,2.67
2018-08-12T15:31:13.486Z,3.13
2018-08-12T15:33:41.852Z,2.73
2018-08-12T15:36:11.680Z,3.03
2018-08-12T15:38:40.767Z,3.90
2018-08-12T15:41:10.318Z,3.67
2018-08-12T15:43:38.796Z,3.60
2018-08-12T15:46:07.458Z,3.70
2018-08-12T15:48:36.909Z,3.33
2018-08-12T15:51:06.002Z,2.53
2018-08-12T15:53:34.374Z,3.50
2018-08-12T15:56:03.651Z,4.33
2018-08-12T15:58:33.161Z,2.83
2018-08-12T16:01:03.096Z,3.07
2018-08-12T16:03:33.018Z,2.10
2018-08-12T16:06:02.863Z,2.10
2018-08-12T16:08:31.801Z,2.37
2018-08-12T16:11:03.497Z,4.63
2018-08-12T16:13:33.812Z,3.53
2018-08-12T16:16:04.034Z,8.83
2018-08-12T16:18:33.912Z,7.33
2018-08-12T16:21:03.839Z,4.20
2018-08-12T16:23:34.645Z,3.77
2018-08-12T16:26:04.170Z,2.67
2018-08-12T16:28:33.794Z,4.07
2018-08-12T16:31:04.352Z,5.13
2018-08-12T16:33:33.883Z,3.20
2018-08-12T16:36:02.942Z,2.67
2018-08-12T16:38:32.460Z,4.90
2018-08-12T16:41:05.927Z,5.47
2018-08-12T16:43:35.393Z,3.47
2018-08-12T16:46:04.625Z,1.67
2018-08-12T16:48:32.918Z,6.03
2018-08-12T16:51:01.254Z,4.47
2018-08-12T16:53:31.236Z,4.47
2018-08-12T16:55:59.626Z,3.20
2018-08-12T16:58:27.974Z,4.57
2018-08-12T17:00:56.997Z,3.33
2018-08-12T17:03:25.468Z,7.40
2018-08-12T17:05:53.838Z,3.67
2018-08-12T17:08:22.208Z,5.07
2018-08-12T17:10:50.544Z,2.73
2018-08-12T17:13:19.100Z,3.20
2018-08-12T17:15:48.174Z,2.33
2018-08-12T17:18:16.875Z,8.30
2018-08-12T17:20:45.347Z,6.53
2018-08-12T17:23:13.658Z,4.30
2018-08-12T17:25:42.099Z,6.60
2018-08-12T17:28:10.385Z,4.77
2018-08-12T17:30:38.923Z,7.40
2018-08-12T17:33:07.987Z,3.90
2018-08-12T17:35:37.082Z,4.23
2018-08-12T17:38:05.431Z,5.13
2018-08-12T17:40:33.781Z,4.17
2018-08-12T17:43:02.115Z,5.33
2018-08-12T17:45:30.545Z,4.30
2018-08-12T17:47:59.059Z,4.97
2018-08-12T17:50:27.676Z,6.13
2018-08-12T17:52:57.081Z,4.70
2018-08-12T17:55:26.727Z,2.50
2018-08-12T17:57:55.423Z,11.83
2018-08-12T18:00:23.794Z,5.53
2018-08-12T18:02:52.195Z,6.77
2018-08-12T18:05:23.865Z,5.90
2018-08-12T18:07:52.489Z,6.37
2018-08-12T18:10:21.239Z,9.03
2018-08-12T18:12:50.086Z,10.03
2018-08-12T18:15:20.122Z,6.37
2018-08-12T18:17:49.369Z,7.77
2018-08-12T18:20:17.742Z,6.87
2018-08-12T18:22:46.177Z,6.87
2018-08-12T18:25:14.495Z,5.13
2018-08-12T18:27:44.977Z,6.90
2018-08-12T18:30:15.127Z,7.23
2018-08-12T18:32:43.435Z,6.37
2018-08-12T18:35:12.599Z,6.63
2018-08-12T18:37:41.477Z,6.50
2018-08-12T18:40:11.826Z,7.87
2018-08-12T18:42:40.735Z,8.40
2018-08-12T18:45:09.811Z,5.97
2018-08-12T18:47:38.945Z,7.93
2018-08-12T18:50:10.022Z,7.40
2018-08-12T18:52:40.790Z,7.23
2018-08-12T18:55:10.979Z,6.83
2018-08-12T18:57:39.787Z,7.73
2018-08-12T19:00:10.810Z,9.37
2018-08-12T19:02:44.362Z,7.83
2018-08-12T19:05:16.210Z,7.40
2018-08-12T19:07:46.495Z,7.90
2018-08-12T19:10:17.512Z,9.47
2018-08-12T19:12:46.040Z,7.90
2018-08-12T19:15:14.415Z,8.70
2018-08-12T19:17:42.797Z,8.07
2018-08-12T19:20:11.893Z,10.30
2018-08-12T19:22:40.734Z,8.27
2018-08-12T19:25:10.191Z,10.33
2018-08-12T19:27:38.758Z,8.47
2018-08-12T19:30:09.944Z,8.70
2018-08-12T19:32:39.014Z,12.03
2018-08-12T19:35:07.985Z,10.10
2018-08-12T19:37:41.284Z,7.97
2018-08-12T19:40:10.178Z,6.70
2018-08-12T19:42:39.031Z,8.67
2018-08-12T19:45:08.643Z,6.93
2018-08-12T19:47:38.717Z,9.27
2018-08-12T19:50:07.559Z,7.07
2018-08-12T19:52:35.930Z,5.80
2018-08-12T19:55:04.722Z,8.63
2018-08-12T19:57:32.899Z,7.30
2018-08-12T20:00:01.205Z,9.50
2018-08-12T20:02:29.341Z,6.03
2018-08-12T20:04:57.802Z,8.53
2018-08-12T20:07:26.061Z,11.70
2018-08-12T20:09:54.341Z,6.30
2018-08-12T20:12:22.506Z,8.10
2018-08-12T20:14:50.608Z,7.00
2018-08-12T20:17:18.682Z,5.97
2018-08-12T20:19:46.775Z,8.27
2018-08-12T20:22:16.020Z,6.73
2018-08-12T20:24:44.860Z,6.67
2018-08-12T20:27:13.396Z,7.17
2018-08-12T20:29:41.621Z,7.20
2018-08-12T20:32:10.095Z,10.03
2018-08-12T20:34:38.268Z,10.00
2018-08-12T20:37:06.537Z,12.97
2018-08-12T20:39:34.830Z,6.57
2018-08-12T20:42:03.034Z,8.00
2018-08-12T20:44:31.111Z,6.70
2018-08-12T20:46:59.217Z,8.97
2018-08-12T20:49:27.318Z,8.20
2018-08-12T20:51:55.561Z,7.50
2018-08-12T20:54:24.151Z,7.47
2018-08-12T20:56:52.597Z,7.13
2018-08-12T20:59:21.172Z,8.80
2018-08-12T21:01:49.436Z,6.83
2018-08-12T21:04:17.544Z,8.97
2018-08-12T21:06:46.620Z,8.83
2018-08-12T21:09:15.016Z,6.83
2018-08-12T21:11:43.221Z,6.30
2018-08-12T21:14:11.419Z,7.73
2018-08-12T21:16:39.656Z,9.27
2018-08-12T21:19:07.928Z,10.07
2018-08-12T21:21:37.121Z,10.40
2018-08-12T21:24:07.175Z,6.37
2018-08-12T21:26:35.923Z,6.60
2018-08-12T21:29:05.445Z,7.50
2018-08-12T21:31:34.164Z,7.50
2018-08-12T21:34:02.576Z,6.27
2018-08-12T21:36:30.772Z,8.50
2018-08-12T21:38:59.126Z,9.33
2018-08-12T21:41:27.445Z,7.73
2018-08-12T21:43:55.566Z,7.23
2018-08-12T21:46:23.647Z,5.87
2018-08-12T21:48:51.722Z,7.90
2018-08-12T21:51:19.750Z,6.27
2018-08-12T21:53:47.978Z,7.03
2018-08-12T21:56:16.311Z,7.30
2018-08-12T21:58:44.382Z,4.93
2018-08-12T22:01:12.453Z,6.33
2018-08-12T22:03:40.635Z,7.63
2018-08-12T22:06:08.728Z,6.90
2018-08-12T22:08:36.825Z,5.47
2018-08-12T22:11:04.931Z,8.70
2018-08-12T22:13:33.131Z,6.17
2018-08-12T22:16:02.018Z,7.20
2018-08-12T22:18:31.798Z,7.57
2018-08-12T22:21:00.008Z,5.53
2018-08-12T22:23:28.115Z,6.40
2018-08-12T22:25:57.800Z,9.00
2018-08-12T22:28:25.923Z,6.93
2018-08-12T22:30:54.171Z,7.63
2018-08-12T22:33:22.283Z,6.53
2018-08-12T22:35:50.374Z,7.97
2018-08-12T22:38:18.490Z,7.27
2018-08-12T22:40:46.589Z,6.27
2018-08-12T22:43:15.716Z,6.63
2018-08-12T22:45:44.922Z,6.90
2018-08-12T22:48:13.329Z,7.67
2018-08-12T22:50:42.391Z,6.47
2018-08-12T22:53:10.757Z,6.40
2018-08-12T22:55:39.103Z,6.43
2018-08-12T22:58:07.375Z,9.90
2018-08-12T23:00:35.815Z,10.40
2018-08-12T23:03:04.241Z,8.17
2018-08-12T23:05:32.551Z,8.10
2018-08-12T23:08:06.928Z,7.50
2018-08-12T23:10:35.629Z,9.60
2018-08-12T23:13:04.292Z,5.17
2018-08-12T23:16:13.361Z,7.20
2018-08-12T23:18:41.763Z,7.37
2018-08-12T23:21:11.943Z,7.73
2018-08-12T23:23:41.814Z,5.67
2018-08-12T23:26:11.252Z,6.23
2018-08-12T23:28:39.652Z,5.17
2018-08-12T23:31:08.304Z,4.10
2018-08-12T23:33:37.045Z,5.27
2018-08-12T23:36:06.096Z,4.97
2018-08-12T23:38:34.768Z,6.93
2018-08-12T23:41:04.204Z,5.47
2018-08-12T23:43:32.598Z,4.80
2018-08-12T23:46:00.973Z,5.73
2018-08-12T23:48:29.991Z,6.30
2018-08-12T23:50:58.340Z,6.30
2018-08-12T23:53:26.633Z,5.97
2018-08-12T23:55:54.965Z,3.90
2018-08-12T23:58:24.025Z,3.97
